createdAt,value
2018-06-28T00:00:32.974Z,18.02
2018-06-28T00:01:32.959Z,17.98
2018-06-28T00:02:32.953Z,17.94
2018-06-28T00:03:32.988Z,17.93
2018-06-28T00:04:32.917Z,17.94
2018-06-28T00:05:32.903Z,17.98
2018-06-28T00:06:32.891Z,17.95
2018-06-28T00:07:32.884Z,18.02
2018-06-28T00:08:32.860Z,18.03
2018-06-28T00:09:32.847Z,18.03
2018-06-28T00:10:32.833Z,18.00
2018-06-28T00:11:32.818Z,17.91
2018-06-28T00:12:32.805Z,17.91
2018-06-28T00:13:32.835Z,17.90
2018-06-28T00:14:32.777Z,17.88
2018-06-28T00:15:32.762Z,17.80
2018-06-28T00:16:32.748Z,17.80
2018-06-28T00:17:32.733Z,17.80
2018-06-28T00:18:32.719Z,17.79
2018-06-28T00:19:32.706Z,17.73
2018-06-28T00:20:32.690Z,17.71
2018-06-28T00:21:32.676Z,17.76
2018-06-28T00:22:32.662Z,17.76
2018-06-28T00:23:32.654Z,17.78
2018-06-28T00:24:32.636Z,17.75
2018-06-28T00:25:32.625Z,17.65
2018-06-28T00:26:32.605Z,17.66
2018-06-28T00:27:32.593Z,17.63
2018-06-28T00:28:32.576Z,17.63
2018-06-28T00:29:32.563Z,17.60
2018-06-28T00:30:32.549Z,17.66
2018-06-28T00:31:32.534Z,17.66
2018-06-28T00:32:32.521Z,17.66
2018-06-28T00:33:32.505Z,17.52
2018-06-28T00:34:32.496Z,17.54
2018-06-28T00:35:32.478Z,17.53
2018-06-28T00:36:32.462Z,17.53
2018-06-28T00:37:32.448Z,17.56
2018-06-28T00:38:32.434Z,17.60
2018-06-28T00:39:32.420Z,17.53
2018-06-28T00:40:32.404Z,17.49
2018-06-28T00:41:32.394Z,17.53
2018-06-28T00:42:32.377Z,17.44
2018-06-28T00:43:32.365Z,17.44
2018-06-28T00:44:32.347Z,17.39
2018-06-28T00:45:32.333Z,17.39
2018-06-28T00:46:32.320Z,17.49
2018-06-28T00:47:32.304Z,17.44
2018-06-28T00:48:32.292Z,17.41
2018-06-28T00:49:32.278Z,17.46
2018-06-28T00:50:32.262Z,17.39
2018-06-28T00:51:32.247Z,17.37
2018-06-28T00:52:32.232Z,17.38
2018-06-28T00:53:32.220Z,17.37
2018-06-28T00:54:32.205Z,17.30
2018-06-28T00:55:32.191Z,17.41
2018-06-28T00:56:32.176Z,17.28
2018-06-28T00:57:32.171Z,17.31
2018-06-28T00:58:32.147Z,17.32
2018-06-28T00:59:32.232Z,17.30
2018-06-28T01:00:32.118Z,17.30
2018-06-28T01:01:32.103Z,17.24
2018-06-28T01:02:32.094Z,17.20
2018-06-28T01:03:32.076Z,17.28
2018-06-28T01:04:32.058Z,17.30
2018-06-28T01:05:32.047Z,17.16
2018-06-28T01:06:32.029Z,17.22
2018-06-28T01:07:32.016Z,17.14
2018-06-28T01:08:32.008Z,17.17
2018-06-28T01:09:31.989Z,17.20
2018-06-28T01:10:31.971Z,17.13
2018-06-28T01:11:31.963Z,17.17
2018-06-28T01:12:31.944Z,17.19
2018-06-28T01:13:31.928Z,17.20
2018-06-28T01:14:31.923Z,17.22
2018-06-28T01:15:31.906Z,17.20
2018-06-28T01:16:31.885Z,17.14
2018-06-28T01:17:31.881Z,17.22
2018-06-28T01:18:31.858Z,17.17
2018-06-28T01:19:31.842Z,17.17
2018-06-28T01:20:31.832Z,17.24
2018-06-28T01:21:31.813Z,17.22
2018-06-28T01:22:31.800Z,17.22
2018-06-28T01:23:31.787Z,17.14
2018-06-28T01:24:31.770Z,17.23
2018-06-28T01:25:31.762Z,17.20
2018-06-28T01:26:31.741Z,17.22
2018-06-28T01:27:31.728Z,17.19
2018-06-28T01:28:31.714Z,17.27
2018-06-28T01:29:31.695Z,17.17
2018-06-28T01:30:31.692Z,17.13
2018-06-28T01:31:31.667Z,17.14
2018-06-28T01:32:31.656Z,17.09
2018-06-28T01:33:31.639Z,17.09
2018-06-28T01:34:31.775Z,17.10
2018-06-28T01:35:31.609Z,17.09
2018-06-28T01:36:31.594Z,17.04
2018-06-28T01:37:31.631Z,17.02
2018-06-28T01:38:31.566Z,17.13
2018-06-28T01:39:31.551Z,17.09
2018-06-28T01:40:31.534Z,17.09
2018-06-28T01:41:31.521Z,16.99
2018-06-28T01:42:31.507Z,17.01
2018-06-28T01:43:31.491Z,17.04
2018-06-28T01:44:31.476Z,17.07
2018-06-28T01:45:31.461Z,16.98
2018-06-28T01:46:31.448Z,16.99
2018-06-28T01:47:31.441Z,16.97
2018-06-28T01:48:31.417Z,16.94
2018-06-28T01:49:31.409Z,16.79
2018-06-28T01:50:31.389Z,16.83
2018-06-28T01:51:31.374Z,16.80
2018-06-28T01:52:31.358Z,16.86
2018-06-28T01:53:31.343Z,16.69
2018-06-28T01:54:31.329Z,16.83
2018-06-28T01:55:31.313Z,16.72
2018-06-28T01:56:31.302Z,16.79
2018-06-28T01:57:31.284Z,16.77
2018-06-28T01:58:31.273Z,16.79
2018-06-28T01:59:31.263Z,16.74
2018-06-28T02:00:31.242Z,16.77
2018-06-28T02:01:31.225Z,16.74
2018-06-28T02:02:31.214Z,16.77
2018-06-28T02:03:31.198Z,16.84
2018-06-28T02:04:31.181Z,16.80
2018-06-28T02:05:31.166Z,16.79
2018-06-28T02:06:31.152Z,16.84
2018-06-28T02:07:31.139Z,16.84
2018-06-28T02:08:31.122Z,16.79
2018-06-28T02:09:31.107Z,16.65
2018-06-28T02:10:31.093Z,16.72
2018-06-28T02:11:31.077Z,16.86
2018-06-28T02:12:31.062Z,16.72
2018-06-28T02:13:31.051Z,16.76
2018-06-28T02:14:31.035Z,16.77
2018-06-28T02:15:31.019Z,16.72
2018-06-28T02:16:31.003Z,16.72
2018-06-28T02:17:30.988Z,16.68
2018-06-28T02:18:30.975Z,16.58
2018-06-28T02:19:30.960Z,16.62
2018-06-28T02:20:30.943Z,16.54
2018-06-28T02:21:30.928Z,16.64
2018-06-28T02:22:30.912Z,16.66
2018-06-28T02:23:30.900Z,16.61
2018-06-28T02:24:30.886Z,16.65
2018-06-28T02:25:30.874Z,16.61
2018-06-28T02:26:30.853Z,16.62
2018-06-28T02:27:30.840Z,16.59
2018-06-28T02:28:30.831Z,16.50
2018-06-28T02:29:30.808Z,16.51
2018-06-28T02:30:30.796Z,16.51
2018-06-28T02:31:30.783Z,16.59
2018-06-28T02:32:30.762Z,16.49
2018-06-28T02:33:30.751Z,16.47
2018-06-28T02:34:30.734Z,16.49
2018-06-28T02:35:30.720Z,16.47
2018-06-28T02:36:30.705Z,16.39
2018-06-28T02:37:30.689Z,16.40
2018-06-28T02:38:30.673Z,16.40
2018-06-28T02:39:30.680Z,16.47
2018-06-28T02:40:30.644Z,16.41
2018-06-28T02:41:30.629Z,16.43
2018-06-28T02:42:30.616Z,16.44
2018-06-28T02:43:30.601Z,16.40
2018-06-28T02:44:30.583Z,16.40
2018-06-28T02:45:30.568Z,16.49
2018-06-28T02:46:30.554Z,16.47
2018-06-28T02:47:30.540Z,16.44
2018-06-28T02:48:30.523Z,16.47
2018-06-28T02:49:30.507Z,16.50
2018-06-28T02:50:30.496Z,16.50
2018-06-28T02:51:30.480Z,16.46
2018-06-28T02:52:30.463Z,16.46
2018-06-28T02:53:30.448Z,16.47
2018-06-28T02:54:30.434Z,16.40
2018-06-28T02:55:30.428Z,16.34
2018-06-28T02:56:30.404Z,16.34
2018-06-28T02:57:30.390Z,16.31
2018-06-28T02:58:30.381Z,16.25
2018-06-28T02:59:30.358Z,16.26
2018-06-28T03:00:30.498Z,16.26
2018-06-28T03:01:30.327Z,16.24
2018-06-28T03:02:30.312Z,16.26
2018-06-28T03:03:30.298Z,16.28
2018-06-28T03:04:30.281Z,16.26
2018-06-28T03:05:30.277Z,16.26
2018-06-28T03:06:30.253Z,16.22
2018-06-28T03:07:30.238Z,16.24
2018-06-28T03:08:30.220Z,16.22
2018-06-28T03:09:30.206Z,16.28
2018-06-28T03:10:30.191Z,16.32
2018-06-28T03:11:30.178Z,16.16
2018-06-28T03:12:30.161Z,16.29
2018-06-28T03:13:30.146Z,16.31
2018-06-28T03:14:30.132Z,16.13
2018-06-28T03:15:30.116Z,16.28
2018-06-28T03:16:30.100Z,16.32
2018-06-28T03:17:30.085Z,16.25
2018-06-28T03:18:30.069Z,16.34
2018-06-28T03:19:30.056Z,16.25
2018-06-28T03:20:30.040Z,16.36
2018-06-28T03:21:30.026Z,16.25
2018-06-28T03:22:30.012Z,16.29
2018-06-28T03:23:29.994Z,16.25
2018-06-28T03:24:29.978Z,16.13
2018-06-28T03:25:29.963Z,16.29
2018-06-28T03:26:29.949Z,16.25
2018-06-28T03:27:29.934Z,16.13
2018-06-28T03:28:29.918Z,16.28
2018-06-28T03:29:29.906Z,16.17
2018-06-28T03:30:29.886Z,16.25
2018-06-28T03:31:29.873Z,16.24
2018-06-28T03:32:29.860Z,16.13
2018-06-28T03:33:29.850Z,16.17
2018-06-28T03:34:29.825Z,16.17
2018-06-28T03:35:29.812Z,16.09
2018-06-28T03:36:29.796Z,16.10
2018-06-28T03:37:29.780Z,16.08
2018-06-28T03:38:29.765Z,16.17
2018-06-28T03:39:29.752Z,16.21
2018-06-28T03:40:29.734Z,16.16
2018-06-28T03:41:29.727Z,16.17
2018-06-28T03:42:29.704Z,16.16
2018-06-28T03:43:29.692Z,16.24
2018-06-28T03:44:29.672Z,16.16
2018-06-28T03:45:29.658Z,16.26
2018-06-28T03:46:29.698Z,16.16
2018-06-28T03:47:29.631Z,16.26
2018-06-28T03:48:29.613Z,16.18
2018-06-28T03:49:29.597Z,16.28
2018-06-28T03:50:29.583Z,16.18
2018-06-28T03:51:29.568Z,16.21
2018-06-28T03:52:29.550Z,16.31
2018-06-28T03:53:29.535Z,16.22
2018-06-28T03:54:29.520Z,16.16
2018-06-28T03:55:29.514Z,16.18
2018-06-28T03:56:29.488Z,16.26
2018-06-28T03:57:29.486Z,16.31
2018-06-28T03:58:29.459Z,16.24
2018-06-28T03:59:29.444Z,16.26
2018-06-28T04:00:29.430Z,16.13
2018-06-28T04:01:29.415Z,16.36
2018-06-28T04:02:29.411Z,16.29
2018-06-28T04:03:29.384Z,16.31
2018-06-28T04:04:29.368Z,16.32
2018-06-28T04:05:29.353Z,16.36
2018-06-28T04:06:29.382Z,16.29
2018-06-28T04:07:29.323Z,16.32
2018-06-28T04:08:29.359Z,16.36
2018-06-28T04:09:29.293Z,16.34
2018-06-28T04:10:29.276Z,16.34
2018-06-28T04:11:29.264Z,16.34
2018-06-28T04:12:29.245Z,16.32
2018-06-28T04:13:29.234Z,16.32
2018-06-28T04:14:29.217Z,16.32
2018-06-28T04:15:29.216Z,16.34
2018-06-28T04:16:29.188Z,16.28
2018-06-28T04:17:29.170Z,16.31
2018-06-28T04:18:29.154Z,16.39
2018-06-28T04:19:29.141Z,16.29
2018-06-28T04:20:29.124Z,16.36
2018-06-28T04:21:29.107Z,16.32
2018-06-28T04:22:29.093Z,16.37
2018-06-28T04:23:29.079Z,16.41
2018-06-28T04:24:29.063Z,16.46
2018-06-28T04:25:29.052Z,16.51
2018-06-28T04:26:29.033Z,16.49
2018-06-28T04:27:29.083Z,16.49
2018-06-28T04:28:29.002Z,16.62
2018-06-28T04:29:28.996Z,16.55
2018-06-28T04:30:28.975Z,16.57
2018-06-28T04:31:28.957Z,16.72
2018-06-28T04:32:28.943Z,16.69
2018-06-28T04:33:28.929Z,16.74
2018-06-28T04:34:28.911Z,16.77
2018-06-28T04:35:28.898Z,16.83
2018-06-28T04:36:28.881Z,16.80
2018-06-28T04:37:28.869Z,16.89
2018-06-28T04:38:28.853Z,16.84
2018-06-28T04:39:28.837Z,16.82
2018-06-28T04:40:28.823Z,16.87
2018-06-28T04:41:28.808Z,16.92
2018-06-28T04:42:28.807Z,16.83
2018-06-28T04:43:28.779Z,16.82
2018-06-28T04:44:28.762Z,16.84
2018-06-28T04:45:28.757Z,16.86
2018-06-28T04:46:28.741Z,16.84
2018-06-28T04:47:28.719Z,16.83
2018-06-28T04:48:28.701Z,16.87
2018-06-28T04:49:28.687Z,16.97
2018-06-28T04:50:28.672Z,17.02
2018-06-28T04:51:28.659Z,17.09
2018-06-28T04:52:28.643Z,17.12
2018-06-28T04:53:28.628Z,17.10
2018-06-28T04:54:28.612Z,17.17
2018-06-28T04:55:28.599Z,17.22
2018-06-28T04:56:28.583Z,17.22
2018-06-28T04:57:28.569Z,17.31
2018-06-28T04:58:28.559Z,17.31
2018-06-28T04:59:28.539Z,17.38
2018-06-28T05:00:28.523Z,17.41
2018-06-28T05:01:28.508Z,17.39
2018-06-28T05:02:28.495Z,17.44
2018-06-28T05:03:28.478Z,17.50
2018-06-28T05:04:28.463Z,17.44
2018-06-28T05:05:28.454Z,17.57
2018-06-28T05:06:28.443Z,17.60
2018-06-28T05:07:28.431Z,17.65
2018-06-28T05:08:28.417Z,17.60
2018-06-28T05:09:28.389Z,17.57
2018-06-28T05:10:28.375Z,17.76
2018-06-28T05:11:28.360Z,17.80
2018-06-28T05:12:28.351Z,17.78
2018-06-28T05:13:28.346Z,17.76
2018-06-28T05:14:28.317Z,17.72
2018-06-28T05:15:28.303Z,17.80
2018-06-28T05:16:28.286Z,17.88
2018-06-28T05:17:28.274Z,17.79
2018-06-28T05:18:28.257Z,17.90
2018-06-28T05:19:28.243Z,17.93
2018-06-28T05:20:28.227Z,17.91
2018-06-28T05:21:28.215Z,17.97
2018-06-28T05:22:28.198Z,17.98
2018-06-28T05:23:28.224Z,18.03
2018-06-28T05:24:28.171Z,18.12
2018-06-28T05:25:28.155Z,18.12
2018-06-28T05:26:28.147Z,18.23
2018-06-28T05:27:28.143Z,18.24
2018-06-28T05:28:28.110Z,18.28
2018-06-28T05:29:28.096Z,18.37
2018-06-28T05:30:28.085Z,18.41
2018-06-28T05:31:28.067Z,18.51
2018-06-28T05:32:28.055Z,18.48
2018-06-28T05:33:28.039Z,18.58
2018-06-28T05:34:28.027Z,18.53
2018-06-28T05:35:28.013Z,18.64
2018-06-28T05:36:27.995Z,18.71
2018-06-28T05:37:27.993Z,18.73
2018-06-28T05:38:27.969Z,18.71
2018-06-28T05:39:27.961Z,18.85
2018-06-28T05:40:27.938Z,18.89
2018-06-28T05:41:27.927Z,18.86
2018-06-28T05:42:27.911Z,19.30
2018-06-28T05:43:27.896Z,20.52
2018-06-28T05:44:27.883Z,21.75
2018-06-28T05:45:27.867Z,22.81
2018-06-28T05:46:27.854Z,23.44
2018-06-28T05:47:27.840Z,24.22
2018-06-28T05:48:27.827Z,24.58
2018-06-28T05:49:27.813Z,24.89
2018-06-28T05:50:27.799Z,25.54
2018-06-28T05:51:27.787Z,26.03
2018-06-28T05:52:27.774Z,26.55
2018-06-28T05:53:27.760Z,26.88
2018-06-28T05:54:27.751Z,27.35
2018-06-28T05:55:27.743Z,27.82
2018-06-28T05:56:27.729Z,27.76
2018-06-28T05:57:27.718Z,27.83
2018-06-28T05:58:27.706Z,28.28
2018-06-28T05:59:27.698Z,28.52
2018-06-28T06:00:27.687Z,28.77
2018-06-28T06:01:27.764Z,29.22
2018-06-28T06:02:27.673Z,29.32
2018-06-28T06:03:27.662Z,29.58
2018-06-28T06:04:27.657Z,29.80
2018-06-28T06:05:27.649Z,30.05
2018-06-28T06:06:27.638Z,29.25
2018-06-28T06:07:27.649Z,28.49
2018-06-28T06:08:27.684Z,28.20
2018-06-28T06:09:27.619Z,28.16
2018-06-28T06:10:27.753Z,28.19
2018-06-28T06:11:27.608Z,28.31
2018-06-28T06:12:27.602Z,28.70
2018-06-28T06:13:27.596Z,28.82
2018-06-28T06:14:27.589Z,28.68
2018-06-28T06:15:27.586Z,29.03
2018-06-28T06:16:27.579Z,28.87
2018-06-28T06:17:27.576Z,28.55
2018-06-28T06:18:27.570Z,28.62
2018-06-28T06:19:27.567Z,28.72
2018-06-28T06:20:27.568Z,28.80
2018-06-28T06:21:27.579Z,29.25
2018-06-28T06:22:27.557Z,29.67
2018-06-28T06:23:27.551Z,30.18
2018-06-28T06:24:27.596Z,30.20
2018-06-28T06:25:27.544Z,30.20
2018-06-28T06:26:27.541Z,30.49
2018-06-28T06:27:27.541Z,30.91
2018-06-28T06:28:27.535Z,30.67
2018-06-28T06:29:27.580Z,30.96
2018-06-28T06:30:27.530Z,30.51
2018-06-28T06:31:27.530Z,30.76
2018-06-28T06:32:27.525Z,31.30
2018-06-28T06:33:27.524Z,31.41
2018-06-28T06:34:27.524Z,31.81
2018-06-28T06:35:27.521Z,32.15
2018-06-28T06:36:27.519Z,32.07
2018-06-28T06:37:27.517Z,32.17
2018-06-28T06:38:27.516Z,32.51
2018-06-28T06:39:27.528Z,32.54
2018-06-28T06:40:27.514Z,32.78
2018-06-28T06:41:27.512Z,33.01
2018-06-28T06:42:27.518Z,33.39
2018-06-28T06:43:27.514Z,33.55
2018-06-28T06:44:27.514Z,33.76
2018-06-28T06:45:27.521Z,33.67
2018-06-28T06:46:27.515Z,33.55
2018-06-28T06:47:27.514Z,33.75
2018-06-28T06:48:27.512Z,33.55
2018-06-28T06:49:27.515Z,33.28
2018-06-28T06:50:27.523Z,33.12
2018-06-28T06:51:27.536Z,32.04
2018-06-28T06:52:27.542Z,32.05
2018-06-28T06:53:27.519Z,32.09
2018-06-28T06:54:27.522Z,31.89
2018-06-28T06:55:27.674Z,31.89
2018-06-28T06:56:27.540Z,32.27
2018-06-28T06:57:27.530Z,32.11
2018-06-28T06:58:27.525Z,32.12
2018-06-28T06:59:27.530Z,31.72
2018-06-28T07:00:27.531Z,31.10
2018-06-28T07:01:27.533Z,30.63
2018-06-28T07:02:27.534Z,30.96
2018-06-28T07:03:27.571Z,30.74
2018-06-28T07:04:27.545Z,30.78
2018-06-28T07:05:27.541Z,31.41
2018-06-28T07:06:27.560Z,31.95
2018-06-28T07:07:27.552Z,32.53
2018-06-28T07:08:27.660Z,32.61
2018-06-28T07:09:27.552Z,33.12
2018-06-28T07:10:27.690Z,33.35
2018-06-28T07:11:27.613Z,33.29
2018-06-28T07:12:27.563Z,32.90
2018-06-28T07:13:27.563Z,32.67
2018-06-28T07:14:27.572Z,32.79
2018-06-28T07:15:27.575Z,32.97
2018-06-28T07:16:27.573Z,33.48
2018-06-28T07:17:27.583Z,33.66
2018-06-28T07:18:27.581Z,33.73
2018-06-28T07:19:27.582Z,33.04
2018-06-28T07:20:27.588Z,32.98
2018-06-28T07:21:27.639Z,32.60
2018-06-28T07:22:27.595Z,32.01
2018-06-28T07:23:27.611Z,31.85
2018-06-28T07:24:27.611Z,31.82
2018-06-28T07:25:27.607Z,31.33
2018-06-28T07:26:27.609Z,31.28
2018-06-28T07:27:27.619Z,31.41
2018-06-28T07:28:27.691Z,31.17
2018-06-28T07:29:27.809Z,30.49
2018-06-28T07:30:27.628Z,30.18
2018-06-28T07:31:27.692Z,29.83
2018-06-28T07:32:27.636Z,29.44
2018-06-28T07:33:27.643Z,29.35
2018-06-28T07:34:27.649Z,29.42
2018-06-28T07:35:27.652Z,29.50
2018-06-28T07:36:27.658Z,29.40
2018-06-28T07:37:27.662Z,29.57
2018-06-28T07:38:27.674Z,29.31
2018-06-28T07:39:27.678Z,29.24
2018-06-28T07:40:27.675Z,29.10
2018-06-28T07:41:27.680Z,29.03
2018-06-28T07:42:27.740Z,28.84
2018-06-28T07:43:27.688Z,29.00
2018-06-28T07:44:27.693Z,29.18
2018-06-28T07:45:27.695Z,29.25
2018-06-28T07:46:27.701Z,29.32
2018-06-28T07:47:27.701Z,29.15
2018-06-28T07:48:27.703Z,29.31
2018-06-28T07:49:27.706Z,29.43
2018-06-28T07:50:27.707Z,29.53
2018-06-28T07:51:27.710Z,29.35
2018-06-28T07:52:27.742Z,29.35
2018-06-28T07:53:27.709Z,29.12
2018-06-28T07:54:27.711Z,29.27
2018-06-28T07:55:27.817Z,29.22
2018-06-28T07:56:27.709Z,29.46
2018-06-28T07:57:27.707Z,29.73
2018-06-28T07:58:27.709Z,30.03
2018-06-28T07:59:27.727Z,29.95
2018-06-28T08:00:27.705Z,29.71
2018-06-28T08:01:27.705Z,29.39
2018-06-28T08:02:27.702Z,28.96
2018-06-28T08:03:27.701Z,28.93
2018-06-28T08:04:27.698Z,28.49
2018-06-28T08:05:27.709Z,28.40
2018-06-28T08:06:27.694Z,28.28
2018-06-28T08:07:27.692Z,28.09
2018-06-28T08:08:27.690Z,27.98
2018-06-28T08:09:27.685Z,27.43
2018-06-28T08:10:27.684Z,27.04
2018-06-28T08:11:28.289Z,27.07
2018-06-28T08:12:27.680Z,27.13
2018-06-28T08:13:27.674Z,27.18
2018-06-28T08:14:27.672Z,27.44
2018-06-28T08:15:27.667Z,27.61
2018-06-28T08:16:27.664Z,27.68
2018-06-28T08:17:27.659Z,27.85
2018-06-28T08:18:27.657Z,28.22
2018-06-28T08:19:27.654Z,28.35
2018-06-28T08:20:27.650Z,28.34
2018-06-28T08:21:27.680Z,28.30
2018-06-28T08:22:27.644Z,28.28
2018-06-28T08:23:27.640Z,28.40
2018-06-28T08:24:27.637Z,28.41
2018-06-28T08:25:27.634Z,28.40
2018-06-28T08:26:27.636Z,28.40
2018-06-28T08:27:27.626Z,28.38
2018-06-28T08:28:27.629Z,28.34
2018-06-28T08:29:27.626Z,27.91
2018-06-28T08:30:27.623Z,27.81
2018-06-28T08:31:27.609Z,27.83
2018-06-28T08:32:27.614Z,28.06
2018-06-28T08:33:27.604Z,28.06
2018-06-28T08:34:27.597Z,28.08
2018-06-28T08:35:27.594Z,27.82
2018-06-28T08:36:27.595Z,27.85
2018-06-28T08:37:27.580Z,27.67
2018-06-28T08:38:27.577Z,27.61
2018-06-28T08:39:27.570Z,27.67
2018-06-28T08:40:27.566Z,27.79
2018-06-28T08:41:27.560Z,27.85
2018-06-28T08:42:27.554Z,27.98
2018-06-28T08:43:27.548Z,27.97
2018-06-28T08:44:27.543Z,27.60
2018-06-28T08:45:27.544Z,27.81
2018-06-28T08:46:27.532Z,27.95
2018-06-28T08:47:27.525Z,28.12
2018-06-28T08:48:27.519Z,28.45
2018-06-28T08:49:27.514Z,28.55
2018-06-28T08:50:27.516Z,28.52
2018-06-28T08:51:27.501Z,28.27
2018-06-28T08:52:27.496Z,28.52
2018-06-28T08:53:27.486Z,28.60
2018-06-28T08:54:27.490Z,28.82
2018-06-28T08:55:27.484Z,28.84
2018-06-28T08:56:27.473Z,29.12
2018-06-28T08:57:27.461Z,29.22
2018-06-28T08:58:27.455Z,29.58
2018-06-28T08:59:27.448Z,29.55
2018-06-28T09:00:27.439Z,29.52
2018-06-28T09:01:27.447Z,29.30
2018-06-28T09:02:27.433Z,29.06
2018-06-28T09:03:27.423Z,29.15
2018-06-28T09:04:27.413Z,28.80
2018-06-28T09:05:27.409Z,28.78
2018-06-28T09:06:27.407Z,28.70
2018-06-28T09:07:27.400Z,28.62
2018-06-28T09:08:27.390Z,28.93
2018-06-28T09:09:27.381Z,29.39
2018-06-28T09:10:27.385Z,29.47
2018-06-28T09:11:27.375Z,29.62
2018-06-28T09:12:27.367Z,30.06
2018-06-28T09:13:27.368Z,30.03
2018-06-28T09:14:27.355Z,29.99
2018-06-28T09:15:27.477Z,30.17
2018-06-28T09:16:27.349Z,30.03
2018-06-28T09:17:27.346Z,29.58
2018-06-28T09:18:27.351Z,29.25
2018-06-28T09:19:27.342Z,29.47
2018-06-28T09:20:27.351Z,29.28
2018-06-28T09:21:27.333Z,29.47
2018-06-28T09:22:27.332Z,29.12
2018-06-28T09:23:27.329Z,29.00
2018-06-28T09:24:27.328Z,29.18
2018-06-28T09:25:27.327Z,29.06
2018-06-28T09:26:27.326Z,28.92
2018-06-28T09:27:27.326Z,29.24
2018-06-28T09:28:27.327Z,29.27
2018-06-28T09:29:27.327Z,29.74
2018-06-28T09:30:27.325Z,30.03
2018-06-28T09:31:27.326Z,30.51
2018-06-28T09:32:27.326Z,30.63
2018-06-28T09:33:27.324Z,30.80
2018-06-28T09:34:27.326Z,30.93
2018-06-28T09:35:27.352Z,30.99
2018-06-28T09:36:27.325Z,31.07
2018-06-28T09:37:27.324Z,30.65
2018-06-28T09:38:27.340Z,30.46
2018-06-28T09:39:27.326Z,30.49
2018-06-28T09:40:27.329Z,30.49
2018-06-28T09:41:27.331Z,30.62
2018-06-28T09:42:27.337Z,30.76
2018-06-28T09:43:27.333Z,30.96
2018-06-28T09:44:27.330Z,30.96
2018-06-28T09:45:27.334Z,30.78
2018-06-28T09:46:27.339Z,30.03
2018-06-28T09:47:27.337Z,29.20
2018-06-28T09:48:27.340Z,29.09
2018-06-28T09:49:27.350Z,29.49
2018-06-28T09:50:27.340Z,29.46
2018-06-28T09:51:27.344Z,29.53
2018-06-28T09:52:27.358Z,29.87
2018-06-28T09:53:27.344Z,30.17
2018-06-28T09:54:27.345Z,30.51
2018-06-28T09:55:27.350Z,30.77
2018-06-28T09:56:27.365Z,31.14
2018-06-28T09:57:27.350Z,31.14
2018-06-28T09:58:27.350Z,30.85
2018-06-28T09:59:27.497Z,30.49
2018-06-28T10:00:27.402Z,29.98
2018-06-28T10:01:27.349Z,30.18
2018-06-28T10:02:27.349Z,30.10
2018-06-28T10:03:27.358Z,30.14
2018-06-28T10:04:27.352Z,29.92
2018-06-28T10:05:27.356Z,30.52
2018-06-28T10:06:27.353Z,30.93
2018-06-28T10:07:27.352Z,30.83
2018-06-28T10:08:27.350Z,31.10
2018-06-28T10:09:27.356Z,31.10
2018-06-28T10:10:27.350Z,31.41
2018-06-28T10:11:27.349Z,30.92
2018-06-28T10:12:27.349Z,31.52
2018-06-28T10:13:27.350Z,32.00
2018-06-28T10:14:27.351Z,31.63
2018-06-28T10:15:27.349Z,31.33
2018-06-28T10:16:27.350Z,30.76
2018-06-28T10:17:27.356Z,31.57
2018-06-28T10:18:27.353Z,31.73
2018-06-28T10:19:27.365Z,31.90
2018-06-28T10:20:27.356Z,32.07
2018-06-28T10:21:27.358Z,32.22
2018-06-28T10:22:27.361Z,31.78
2018-06-28T10:23:27.360Z,32.38
2018-06-28T10:24:27.365Z,32.63
2018-06-28T10:25:27.365Z,32.66
2018-06-28T10:26:27.369Z,32.61
2018-06-28T10:27:27.371Z,32.88
2018-06-28T10:28:27.377Z,32.17
2018-06-28T10:29:27.381Z,32.44
2018-06-28T10:30:27.385Z,32.86
2018-06-28T10:31:27.596Z,33.09
2018-06-28T10:32:27.400Z,32.67
2018-06-28T10:33:27.410Z,32.81
2018-06-28T10:34:27.410Z,32.57
2018-06-28T10:35:27.406Z,32.09
2018-06-28T10:36:27.420Z,32.31
2018-06-28T10:37:27.416Z,32.68
2018-06-28T10:38:27.425Z,32.61
2018-06-28T10:39:27.427Z,31.87
2018-06-28T10:40:27.430Z,31.66
2018-06-28T10:41:27.451Z,30.29
2018-06-28T10:42:27.452Z,29.40
2018-06-28T10:43:27.457Z,29.03
2018-06-28T10:44:27.456Z,29.00
2018-06-28T10:45:27.460Z,29.35
2018-06-28T10:46:27.462Z,30.03
2018-06-28T10:47:27.530Z,30.23
2018-06-28T10:48:27.469Z,30.65
2018-06-28T10:49:27.474Z,31.10
2018-06-28T10:50:27.516Z,30.85
2018-06-28T10:51:27.480Z,31.41
2018-06-28T10:52:27.478Z,31.93
2018-06-28T10:53:27.483Z,32.01
2018-06-28T10:54:27.485Z,32.48
2018-06-28T10:55:27.492Z,32.64
2018-06-28T10:56:27.516Z,32.57
2018-06-28T10:57:27.497Z,32.29
2018-06-28T10:58:27.503Z,32.49
2018-06-28T10:59:27.551Z,32.48
2018-06-28T11:00:27.513Z,32.46
2018-06-28T11:01:27.515Z,32.29
2018-06-28T11:02:27.532Z,32.12
2018-06-28T11:03:27.536Z,31.97
2018-06-28T11:04:27.534Z,31.79
2018-06-28T11:05:27.537Z,32.12
2018-06-28T11:06:27.542Z,31.52
2018-06-28T11:07:27.569Z,31.10
2018-06-28T11:08:27.627Z,31.39
2018-06-28T11:09:27.562Z,31.77
2018-06-28T11:10:27.566Z,31.93
2018-06-28T11:11:27.577Z,31.89
2018-06-28T11:12:27.574Z,31.77
2018-06-28T11:13:27.583Z,31.73
2018-06-28T11:14:27.586Z,31.89
2018-06-28T11:15:27.593Z,31.67
2018-06-28T11:16:27.597Z,31.66
2018-06-28T11:17:27.602Z,31.79
2018-06-28T11:18:27.637Z,31.74
2018-06-28T11:19:27.617Z,31.89
2018-06-28T11:20:27.624Z,31.57
2018-06-28T11:21:27.628Z,31.69
2018-06-28T11:22:27.637Z,31.86
2018-06-28T11:23:27.640Z,31.57
2018-06-28T11:24:27.646Z,31.10
2018-06-28T11:25:27.661Z,31.22
2018-06-28T11:26:27.664Z,31.28
2018-06-28T11:27:27.664Z,31.62
2018-06-28T11:28:27.679Z,31.10
2018-06-28T11:29:27.676Z,30.74
2018-06-28T11:30:27.688Z,31.29
2018-06-28T11:31:27.689Z,31.20
2018-06-28T11:32:27.693Z,30.49
2018-06-28T11:33:27.707Z,30.95
2018-06-28T11:34:27.713Z,31.35
2018-06-28T11:35:27.711Z,31.67
2018-06-28T11:36:27.722Z,30.43
2018-06-28T11:37:27.722Z,30.26
2018-06-28T11:38:27.729Z,30.46
2018-06-28T11:39:27.735Z,30.71
2018-06-28T11:40:27.739Z,31.08
2018-06-28T11:41:27.742Z,31.45
2018-06-28T11:42:27.748Z,31.73
2018-06-28T11:43:27.753Z,31.72
2018-06-28T11:44:27.809Z,30.99
2018-06-28T11:45:27.765Z,30.78
2018-06-28T11:46:27.767Z,30.52
2018-06-28T11:47:27.770Z,30.48
2018-06-28T11:48:27.776Z,29.62
2018-06-28T11:49:27.783Z,30.01
2018-06-28T11:50:27.781Z,30.05
2018-06-28T11:51:27.794Z,30.31
2018-06-28T11:52:27.790Z,30.11
2018-06-28T11:53:27.788Z,29.46
2018-06-28T11:54:27.800Z,29.02
2018-06-28T11:55:27.792Z,28.82
2018-06-28T11:56:27.798Z,29.00
2018-06-28T11:57:27.795Z,29.25
2018-06-28T11:58:27.791Z,29.37
2018-06-28T11:59:27.801Z,29.53
2018-06-28T12:00:27.792Z,29.49
2018-06-28T12:01:27.791Z,29.05
2018-06-28T12:02:27.789Z,29.20
2018-06-28T12:03:27.796Z,29.09
2018-06-28T12:04:27.784Z,28.97
2018-06-28T12:05:27.828Z,29.03
2018-06-28T12:06:27.780Z,28.93
2018-06-28T12:07:27.787Z,28.93
2018-06-28T12:08:27.775Z,28.97
2018-06-28T12:09:27.778Z,29.13
2018-06-28T12:10:27.769Z,29.25
2018-06-28T12:11:27.765Z,29.03
2018-06-28T12:12:27.762Z,29.10
2018-06-28T12:13:27.757Z,29.16
2018-06-28T12:14:27.755Z,29.13
2018-06-28T12:15:27.784Z,29.03
2018-06-28T12:16:27.747Z,28.75
2018-06-28T12:17:27.749Z,28.70
2018-06-28T12:18:27.737Z,28.77
2018-06-28T12:19:27.739Z,29.00
2018-06-28T12:20:27.727Z,29.22
2018-06-28T12:21:27.730Z,29.32
2018-06-28T12:22:27.756Z,29.21
2018-06-28T12:23:27.713Z,29.24
2018-06-28T12:24:27.708Z,29.24
2018-06-28T12:25:27.703Z,29.20
2018-06-28T12:26:27.697Z,29.27
2018-06-28T12:27:27.692Z,29.24
2018-06-28T12:28:27.899Z,29.15
2018-06-28T12:29:27.693Z,29.03
2018-06-28T12:30:27.693Z,28.86
2018-06-28T12:31:27.671Z,28.97
2018-06-28T12:32:27.665Z,29.00
2018-06-28T12:33:27.668Z,29.16
2018-06-28T12:34:27.657Z,29.28
2018-06-28T12:35:27.650Z,29.25
2018-06-28T12:36:27.641Z,29.21
2018-06-28T12:37:27.647Z,29.02
2018-06-28T12:38:27.643Z,28.78
2018-06-28T12:39:27.633Z,28.59
2018-06-28T12:40:27.627Z,28.43
2018-06-28T12:41:27.614Z,28.41
2018-06-28T12:42:27.607Z,28.25
2018-06-28T12:43:27.603Z,28.38
2018-06-28T12:44:27.787Z,28.30
2018-06-28T12:45:27.595Z,28.27
2018-06-28T12:46:27.598Z,28.47
2018-06-28T12:47:27.587Z,28.55
2018-06-28T12:48:27.577Z,28.83
2018-06-28T12:49:27.565Z,28.87
2018-06-28T12:50:27.568Z,29.03
2018-06-28T12:51:27.552Z,29.06
2018-06-28T12:52:27.547Z,29.09